Time;durP1;ratioP1;P1;durP2;ratioP2;P2;SDS_P1;SDS_P2;PMS_P1;PMS_P2;Temp;Humidity;BMP_temperature;BMP_pressure;BME280_temperature;BME280_humidity;BME280_pressure;Samples;Min_cycle;Max_cycle;Signal;HPM_P1;HPM_P2
2024/04/09 00:01:31;;;;;;;8.40;5.80;;;;;;;17.45;53.87;99911.89;112792;1257;21879;-71
2024/04/09 00:04:00;;;;;;;11.60;5.30;;;;;;;17.42;53.99;99911.77;112769;1257;21899;-71
2024/04/09 00:06:30;;;;;;;6.30;5.30;;;;;;;17.38;54.03;99909.38;112793;1257;21851;-73
2024/04/09 00:08:59;;;;;;;12.90;4.90;;;;;;;17.35;54.18;99902.25;112785;1257;22416;-72
2024/04/09 00:11:30;;;;;;;6.90;5.00;;;;;;;17.31;54.32;99897.64;112801;1258;22206;-74
2024/04/09 00:13:58;;;;;;;9.80;5.10;;;;;;;17.29;54.45;99895.03;112794;1257;21882;-73
2024/04/09 00:16:27;;;;;;;10.50;5.60;;;;;;;17.25;54.74;99893.34;112786;1258;21893;-76
2024/04/09 00:18:58;;;;;;;8.80;6.00;;;;;;;17.21;54.66;99893.73;112795;1257;22326;-75
2024/04/09 00:21:31;;;;;;;7.80;5.20;;;;;;;17.19;54.96;99895.55;112803;1258;22177;-73
2024/04/09 00:24:00;;;;;;;8.10;5.50;;;;;;;17.17;54.98;99894.66;112799;1257;21810;-74
2024/04/09 00:26:31;;;;;;;6.50;4.80;;;;;;;17.16;54.90;99892.52;112797;1258;22241;-74
2024/04/09 00:29:00;;;;;;;11.30;5.30;;;;;;;17.15;55.04;99893.64;112809;1258;21907;-72
2024/04/09 00:31:28;;;;;;;7.90;4.50;;;;;;;17.13;55.28;99889.90;112786;1257;21871;-72
2024/04/09 00:33:57;;;;;;;8.50;5.40;;;;;;;17.14;55.35;99890.97;112795;1257;21851;-73
2024/04/09 00:36:26;;;;;;;6.10;4.10;;;;;;;17.14;55.09;99891.87;112798;1256;21874;-71
2024/04/09 00:38:56;;;;;;;8.60;4.40;;;;;;;17.14;55.17;99893.27;112800;1257;21909;-75
2024/04/09 00:41:25;;;;;;;8.70;5.30;;;;;;;17.12;55.36;99895.94;112785;1257;22280;-71
2024/04/09 00:43:53;;;;;;;5.90;4.50;;;;;;;17.11;55.33;99894.10;112775;1257;21937;-73
2024/04/09 00:46:22;;;;;;;6.60;4.50;;;;;;;17.12;55.38;99892.23;112801;1257;21840;-74
2024/04/09 00:48:52;;;;;;;5.40;4.30;;;;;;;17.13;55.40;99894.37;112783;1257;21797;-72
2024/04/09 00:51:22;;;;;;;9.30;5.00;;;;;;;17.13;55.51;99892.77;112769;1258;22155;-74
2024/04/09 00:53:51;;;;;;;4.50;4.10;;;;;;;17.12;55.43;99887.79;112784;1257;21903;-73
2024/04/09 00:56:23;;;;;;;6.40;4.30;;;;;;;17.10;55.42;99886.17;112587;1257;21873;-75
2024/04/09 00:58:53;;;;;;;9.40;4.50;;;;;;;17.07;55.45;99887.27;112612;1258;21880;-73
2024/04/09 01:01:22;;;;;;;10.20;4.60;;;;;;;17.05;55.81;99884.61;112603;1258;203702;-73
2024/04/09 01:03:50;;;;;;;6.40;4.90;;;;;;;17.04;55.87;99878.29;112791;1257;21845;-72
2024/04/09 01:06:19;;;;;;;8.30;4.70;;;;;;;17.02;55.88;99875.84;112790;1257;22209;-72
2024/04/09 01:08:48;;;;;;;12.60;5.30;;;;;;;16.99;56.01;99877.14;112613;1257;21899;-72
2024/04/09 01:11:17;;;;;;;7.60;5.00;;;;;;;16.98;56.09;99876.42;112678;1250;21810;-72
2024/04/09 01:13:45;;;;;;;8.20;5.20;;;;;;;16.96;55.98;99873.25;112770;1258;21919;-73
2024/04/09 01:16:14;;;;;;;10.50;4.60;;;;;;;16.93;55.92;99873.88;112806;1257;21912;-72
2024/04/09 01:18:43;;;;;;;6.50;5.10;;;;;;;16.90;56.06;99875.43;112771;1257;22371;-72
2024/04/09 01:21:12;;;;;;;10.70;5.20;;;;;;;16.87;56.17;99881.14;112780;1257;21895;-73
2024/04/09 01:23:40;;;;;;;7.00;4.80;;;;;;;16.83;56.34;99884.34;112791;1257;21910;-74
2024/04/09 01:26:09;;;;;;;6.00;5.10;;;;;;;16.80;56.38;99882.72;112765;1257;22374;-72
2024/04/09 01:28:39;;;;;;;8.10;5.20;;;;;;;16.78;56.58;99880.27;112788;1257;21833;-72
2024/04/09 01:31:12;;;;;;;8.50;4.80;;;;;;;16.78;56.77;99882.27;112792;1257;21821;-72
2024/04/09 01:33:40;;;;;;;10.50;5.70;;;;;;;16.76;56.82;99882.75;112772;1257;21850;-71
2024/04/09 01:36:12;;;;;;;5.70;4.40;;;;;;;16.77;56.68;99887.80;112778;1257;21808;-73
2024/04/09 01:38:41;;;;;;;;;;;;;;;16.79;56.69;99884.77;112779;1257;21895;-71
2024/04/09 01:41:09;;;;;;;7.90;4.60;;;;;;;16.70;56.97;99886.60;112781;1258;22180;-72
2024/04/09 01:43:38;;;;;;;15.70;4.70;;;;;;;16.74;56.85;99885.87;112782;1255;21907;-70
2024/04/09 01:46:10;;;;;;;8.80;5.10;;;;;;;16.76;56.66;99883.61;112775;1257;21877;-73
2024/04/09 01:48:39;;;;;;;5.80;4.60;;;;;;;16.76;56.70;99885.21;112815;1257;22028;-73
2024/04/09 01:51:10;;;;;;;6.60;4.60;;;;;;;16.76;56.81;99881.84;112791;1258;21831;-72
2024/04/09 01:53:44;;;;;;;6.90;4.80;;;;;;;16.76;56.66;99884.05;112796;1258;21855;-72
2024/04/09 01:56:12;;;;;;;10.80;5.10;;;;;;;16.70;56.89;99887.08;112816;1258;21887;-73
2024/04/09 01:58:41;;;;;;;8.10;4.60;;;;;;;16.69;56.95;99885.44;112374;1263;21880;-72
2024/04/09 02:01:10;;;;;;;6.10;4.00;;;;;;;16.64;56.95;99884.52;112064;1262;21919;-72
2024/04/09 02:03:40;;;;;;;9.10;4.80;;;;;;;16.65;56.89;99884.27;112237;1263;22324;-73
2024/04/09 02:06:16;;;;;;;10.00;4.90;;;;;;;16.65;57.21;99880.52;112399;1263;21946;-72
2024/04/09 02:08:45;;;;;;;6.90;4.90;;;;;;;16.65;57.15;99883.71;111746;1267;21829;-73
2024/04/09 02:11:16;;;;;;;9.00;5.10;;;;;;;16.63;56.88;99885.52;111558;1268;21700;-75
2024/04/09 02:13:47;;;;;;;7.90;5.40;;;;;;;16.58;57.12;99884.29;111744;1268;21834;-73
2024/04/09 02:16:16;;;;;;;7.70;5.40;;;;;;;16.51;57.49;99882.72;111613;1261;21893;-76
2024/04/09 02:18:45;;;;;;;8.90;4.90;;;;;;;16.47;57.48;99881.45;112473;1262;21921;-75
2024/04/09 02:21:20;;;;;;;8.70;4.40;;;;;;;16.45;57.41;99878.85;112512;1262;21958;-73
2024/04/09 02:23:52;;;;;;;10.50;4.80;;;;;;;16.43;57.41;99881.03;112398;1261;21913;-72
2024/04/09 02:26:21;;;;;;;;;;;;;;;16.40;57.29;99882.86;112581;1258;21915;-72
2024/04/09 02:28:50;;;;;;;7.30;4.70;;;;;;;16.25;57.61;99880.71;112796;1258;21932;-73
2024/04/09 02:31:19;;;;;;;6.40;4.30;;;;;;;16.24;57.90;99878.52;112781;1257;22346;-72
2024/04/09 02:33:48;;;;;;;5.90;3.90;;;;;;;16.25;57.91;99876.73;112794;1258;21876;-74
2024/04/09 02:36:16;;;;;;;11.70;4.10;;;;;;;16.27;57.97;99873.00;112789;1257;22336;-73
2024/04/09 02:38:45;;;;;;;7.30;4.60;;;;;;;16.30;57.58;99875.25;112787;1258;22345;-76
2024/04/09 02:41:16;;;;;;;7.50;4.90;;;;;;;16.30;57.75;99872.19;112782;1258;21874;-72
2024/04/09 02:43:45;;;;;;;7.30;4.20;;;;;;;16.32;57.70;99870.27;112789;1258;22385;-72
2024/04/09 02:46:14;;;;;;;5.10;4.20;;;;;;;16.30;57.62;99871.12;112793;1258;21861;-73
2024/04/09 02:48:42;;;;;;;11.50;4.90;;;;;;;16.29;57.36;99871.02;112783;1257;21816;-74
2024/04/09 02:51:11;;;;;;;5.80;4.90;;;;;;;16.30;57.34;99872.55;112781;1258;22212;-76
2024/04/09 02:53:40;;;;;;;6.60;4.50;;;;;;;16.28;57.47;99873.44;112792;1258;22219;-72
2024/04/09 02:56:13;;;;;;;7.00;5.00;;;;;;;16.25;57.37;99869.33;112803;1258;21894;-71
2024/04/09 02:58:42;;;;;;;8.50;4.30;;;;;;;16.22;57.51;99868.26;112810;1257;21954;-74
2024/04/09 03:01:11;;;;;;;10.20;6.00;;;;;;;16.20;57.42;99868.98;112624;1258;21866;-72
2024/04/09 03:03:40;;;;;;;9.10;5.90;;;;;;;16.19;57.66;99867.44;112787;1258;22413;-73
2024/04/09 03:06:12;;;;;;;12.70;6.70;;;;;;;16.17;57.49;99865.33;112806;1258;21791;-73
2024/04/09 03:08:42;;;;;;;15.50;7.80;;;;;;;16.17;57.64;99865.70;112816;1251;22381;-74
2024/04/09 03:11:16;;;;;;;15.40;8.10;;;;;;;16.19;57.34;99870.50;112776;1257;21858;-72
2024/04/09 03:13:51;;;;;;;15.80;7.20;;;;;;;16.21;57.32;99872.38;112784;1257;21907;-73
2024/04/09 03:16:21;;;;;;;14.40;6.80;;;;;;;16.26;57.07;99874.73;112209;1263;21887;-74
2024/04/09 03:18:53;;;;;;;10.80;5.30;;;;;;;16.24;56.92;99879.80;112246;1263;22175;-74
2024/04/09 03:21:23;;;;;;;7.30;5.10;;;;;;;16.21;56.75;99875.98;112075;1263;21841;-74
2024/04/09 03:23:51;;;;;;;7.10;4.60;;;;;;;16.18;56.79;99874.27;112371;1263;22508;-73
2024/04/09 03:26:20;;;;;;;8.90;5.40;;;;;;;16.18;56.75;99873.60;112399;1263;21929;-72
2024/04/09 03:28:53;;;;;;;13.60;4.80;;;;;;;16.17;56.63;99876.15;112404;1263;21941;-74
2024/04/09 03:31:25;;;;;;;7.40;4.60;;;;;;;16.16;56.61;99874.17;112255;1263;21905;-74
2024/04/09 03:33:54;;;;;;;;;;;;;;;16.14;56.63;99873.16;111862;1258;21934;-73
2024/04/09 03:36:28;;;;;;;;;;;;;;;15.99;57.10;99874.47;112785;1258;21871;-73
2024/04/09 03:38:59;;;;;;;11.30;5.60;;;;;;;15.88;57.28;99869.66;112638;1258;21821;-74
2024/04/09 03:41:29;;;;;;;6.60;4.70;;;;;;;15.94;57.00;99866.79;112464;1258;21851;-73
2024/04/09 03:44:01;;;;;;;9.10;4.80;;;;;;;15.99;56.87;99868.55;112560;1258;21831;-75
2024/04/09 03:46:31;;;;;;;10.20;5.40;;;;;;;16.01;56.62;99869.06;112452;1258;22340;-76
2024/04/09 03:49:00;;;;;;;10.70;6.00;;;;;;;16.03;56.50;99868.05;112787;1257;21884;-74
2024/04/09 03:51:29;;;;;;;12.80;6.00;;;;;;;16.04;56.35;99866.33;112818;1257;21832;-75
2024/04/09 03:53:59;;;;;;;9.60;5.50;;;;;;;16.04;56.20;99864.55;112799;1257;21905;-75
2024/04/09 03:56:28;;;;;;;12.80;6.50;;;;;;;16.03;56.14;99862.35;112618;1257;21859;-74
2024/04/09 03:58:56;;;;;;;11.10;6.20;;;;;;;16.02;56.40;99862.48;112700;1258;22296;-77
2024/04/09 04:01:25;;;;;;;17.70;7.00;;;;;;;16.00;56.40;99859.94;112778;1258;21922;-74
2024/04/09 04:03:54;;;;;;;11.50;6.00;;;;;;;16.00;56.30;99859.66;112785;1251;22353;-73
2024/04/09 04:06:22;;;;;;;12.70;5.80;;;;;;;15.98;56.06;99858.73;112789;1257;21876;-75
2024/04/09 04:08:51;;;;;;;8.70;5.00;;;;;;;15.96;56.15;99860.50;112902;1258;21897;-73
2024/04/09 04:11:20;;;;;;;6.40;5.30;;;;;;;15.94;56.14;99862.15;112839;1257;21953;-75
2024/04/09 04:13:48;;;;;;;8.10;5.00;;;;;;;15.92;55.89;99862.90;112797;1258;21867;-74
2024/04/09 04:16:18;;;;;;;8.30;5.40;;;;;;;15.90;55.98;99859.89;112784;1252;22185;-75
2024/04/09 04:18:48;;;;;;;8.40;5.00;;;;;;;15.90;56.07;99857.23;112772;1257;22321;-77
2024/04/09 04:21:22;;;;;;;7.40;4.90;;;;;;;15.91;56.01;99860.50;112804;1258;21867;-74
2024/04/09 04:23:54;;;;;;;7.90;4.60;;;;;;;15.92;55.89;99857.44;112685;1257;21857;-75
2024/04/09 04:26:25;;;;;;;7.80;4.90;;;;;;;15.94;55.83;99860.55;112604;1258;21979;-75
2024/04/09 04:28:54;;;;;;;7.80;5.00;;;;;;;15.96;55.63;99857.84;112540;1258;21885;-74
2024/04/09 04:31:25;;;;;;;9.40;3.80;;;;;;;15.97;55.39;99850.67;112757;1258;21880;-76
2024/04/09 04:33:54;;;;;;;5.20;3.70;;;;;;;16.00;55.19;99853.58;112790;1258;21862;-74
2024/04/09 04:36:23;;;;;;;5.00;3.50;;;;;;;16.02;54.99;99850.56;112781;1258;21872;-77
2024/04/09 04:38:52;;;;;;;7.60;4.10;;;;;;;16.04;55.14;99852.27;112784;1258;21868;-76
2024/04/09 04:41:20;;;;;;;8.70;3.70;;;;;;;16.09;55.02;99850.73;112800;1258;22406;-76
2024/04/09 04:43:50;;;;;;;12.10;4.50;;;;;;;16.13;54.69;99854.60;112794;1258;21843;-76
2024/04/09 04:46:19;;;;;;;6.40;3.80;;;;;;;16.18;54.59;99853.65;112794;1258;21896;-77
2024/04/09 04:48:47;;;;;;;5.60;3.90;;;;;;;16.24;54.47;99853.64;112811;1257;21848;-76
2024/04/09 04:51:16;;;;;;;10.90;4.30;;;;;;;16.29;54.07;99855.12;112801;1257;21869;-78
2024/04/09 04:53:45;;;;;;;8.30;4.20;;;;;;;16.32;53.66;99856.22;112787;1258;21823;-77
2024/04/09 04:56:16;;;;;;;7.80;4.30;;;;;;;16.34;53.37;99853.89;112843;1258;21847;-77
2024/04/09 04:58:47;;;;;;;5.20;3.80;;;;;;;16.38;53.37;99855.75;112393;1263;21945;-76
2024/04/09 05:01:15;;;;;;;6.90;3.40;;;;;;;16.43;53.27;99854.85;112076;1263;21924;-76
2024/04/09 05:03:44;;;;;;;11.20;4.30;;;;;;;16.48;52.87;99852.58;112412;1263;21809;-76
2024/04/09 05:06:13;;;;;;;5.80;3.50;;;;;;;16.53;52.79;99855.64;112399;1263;21932;-77
2024/04/09 05:08:42;;;;;;;8.10;3.60;;;;;;;16.58;52.67;99858.33;112401;1263;21864;-78
2024/04/09 05:11:10;;;;;;;10.60;3.70;;;;;;;16.66;52.72;99855.85;112419;1263;21861;-77
2024/04/09 05:13:39;;;;;;;9.00;4.20;;;;;;;16.75;52.21;99859.42;112248;1263;22479;-75
2024/04/09 05:16:08;;;;;;;6.20;3.80;;;;;;;16.83;51.88;99862.16;112409;1258;21903;-79
2024/04/09 05:18:36;;;;;;;11.40;4.30;;;;;;;16.90;51.53;99857.46;112824;1258;21927;-75
2024/04/09 05:21:05;;;;;;;8.00;3.80;;;;;;;16.96;51.31;99852.95;112710;1258;21761;-75
2024/04/09 05:23:34;;;;;;;7.40;3.90;;;;;;;17.01;51.30;99847.13;112809;1258;21880;-75
2024/04/09 05:26:03;;;;;;;8.90;4.70;;;;;;;17.06;50.88;99846.98;112789;1257;21875;-76
2024/04/09 05:28:31;;;;;;;11.30;4.50;;;;;;;17.13;50.81;99846.58;112795;1258;21910;-76
2024/04/09 05:31:00;;;;;;;11.50;5.30;;;;;;;17.23;50.35;99845.84;112803;1258;21925;-74
2024/04/09 05:33:28;;;;;;;12.40;4.70;;;;;;;17.33;50.11;99842.95;112783;1257;21810;-75
2024/04/09 05:35:57;;;;;;;12.40;5.40;;;;;;;17.45;49.88;99837.84;112787;1258;22362;-74
2024/04/09 05:38:26;;;;;;;11.50;4.40;;;;;;;17.56;49.67;99834.52;112784;1258;21869;-73
2024/04/09 05:40:58;;;;;;;6.40;4.00;;;;;;;17.66;49.15;99839.08;112780;1258;21817;-74
2024/04/09 05:43:26;;;;;;;11.80;4.10;;;;;;;17.75;48.75;99836.71;112783;1258;21882;-76
2024/04/09 05:45:55;;;;;;;6.80;4.10;;;;;;;17.86;48.70;99837.48;112771;1257;22214;-74
2024/04/09 05:48:24;;;;;;;7.20;3.70;;;;;;;17.97;48.19;99841.98;112784;1255;22186;-73
2024/04/09 05:50:53;;;;;;;8.10;3.70;;;;;;;18.08;48.01;99841.81;111793;1264;22230;-73
2024/04/09 05:53:21;;;;;;;7.80;4.40;;;;;;;18.21;47.62;99839.56;112184;1264;21828;-72
2024/04/09 05:55:56;;;;;;;9.10;3.90;;;;;;;18.33;47.45;99840.84;112276;1264;21894;-72
2024/04/09 05:58:25;;;;;;;9.10;3.70;;;;;;;18.43;46.65;99846.31;112268;1264;22228;-74
2024/04/09 06:00:56;;;;;;;5.70;3.50;;;;;;;18.57;46.39;99844.47;112302;1264;21920;-72
2024/04/09 06:03:24;;;;;;;7.90;3.90;;;;;;;18.71;45.96;99847.58;112182;1264;22377;-73
2024/04/09 06:05:55;;;;;;;11.30;3.60;;;;;;;18.82;45.83;99848.42;112309;1264;21852;-73
2024/04/09 06:08:24;;;;;;;6.40;3.40;;;;;;;18.92;45.66;99849.84;112350;1257;21927;-73
2024/04/09 06:10:53;;;;;;;9.90;3.50;;;;;;;19.04;45.51;99845.03;112793;1258;21889;-73
2024/04/09 06:13:21;;;;;;;8.00;3.50;;;;;;;19.22;45.09;99845.17;112681;1258;22241;-74
2024/04/09 06:15:50;;;;;;;6.00;2.80;;;;;;;19.37;44.75;99844.86;112771;1258;21858;-72
2024/04/09 06:18:19;;;;;;;10.00;3.60;;;;;;;19.58;44.46;99839.59;112785;1258;21905;-71
2024/04/09 06:20:48;;;;;;;12.00;3.70;;;;;;;19.80;43.61;99839.84;112759;1258;22155;-72
2024/04/09 06:23:16;;;;;;;7.90;3.80;;;;;;;19.97;43.07;99842.67;112803;1257;21861;-77
2024/04/09 06:25:55;;;;;;;8.50;3.60;;;;;;;20.13;42.60;99842.90;112791;1258;21866;-73
2024/04/09 06:28:24;;;;;;;10.50;4.10;;;;;;;20.29;42.14;99845.71;112752;1258;21898;-73
2024/04/09 06:30:52;;;;;;;7.60;3.30;;;;;;;20.51;42.00;99845.57;112797;1258;21902;-74
2024/04/09 06:33:22;;;;;;;6.40;3.30;;;;;;;20.74;41.20;99851.61;112777;1258;21850;-73
2024/04/09 06:35:51;;;;;;;7.40;3.20;;;;;;;20.97;40.94;99850.79;112770;1257;21870;-72
2024/04/09 06:38:20;;;;;;;8.70;3.70;;;;;;;21.29;40.31;99852.82;112625;1258;22200;-72
2024/04/09 06:40:49;;;;;;;7.90;3.00;;;;;;;21.57;40.01;99852.75;112747;1258;22356;-72
2024/04/09 06:43:17;;;;;;;6.60;3.90;;;;;;;21.93;39.16;99850.54;112771;1258;21842;-74
2024/04/09 06:45:49;;;;;;;;;;;;;;;22.23;38.54;99846.02;112763;1258;21891;-72
2024/04/09 06:48:18;;;;;;;7.80;3.30;;;;;;;22.40;38.29;99845.41;112781;1248;22348;-72
2024/04/09 06:50:47;;;;;;;6.40;3.00;;;;;;;22.65;37.22;99846.80;112785;1258;21793;-73
2024/04/09 06:53:16;;;;;;;9.00;3.00;;;;;;;22.70;36.78;99849.73;112786;1258;21926;-76
2024/04/09 06:55:44;;;;;;;8.50;3.00;;;;;;;22.73;36.86;99849.30;112596;1251;21849;-71
2024/04/09 06:58:13;;;;;;;8.60;3.20;;;;;;;22.83;36.58;99854.66;112797;1258;22372;-70
2024/04/09 07:00:41;;;;;;;10.90;3.20;;;;;;;22.95;36.59;99854.20;112783;1258;21900;-72
2024/04/09 07:03:10;;;;;;;7.40;3.50;;;;;;;23.09;36.06;99855.63;112811;1257;21853;-72
2024/04/09 07:05:40;;;;;;;8.60;3.40;;;;;;;23.19;35.39;99849.29;112768;1258;21876;-72
2024/04/09 07:08:08;;;;;;;9.50;3.60;;;;;;;23.22;35.45;99851.00;112769;1258;21904;-73
2024/04/09 07:10:37;;;;;;;11.70;3.20;;;;;;;23.39;35.39;99849.20;112574;1258;21875;-75
2024/04/09 07:13:06;;;;;;;7.70;3.00;;;;;;;23.56;35.06;99853.83;112783;1258;22367;-73
2024/04/09 07:15:35;;;;;;;6.10;3.30;;;;;;;23.76;34.78;99858.16;112551;1258;22554;-74
2024/04/09 07:18:04;;;;;;;11.40;3.10;;;;;;;24.19;34.68;99859.39;112780;1258;21929;-73
2024/04/09 07:20:32;;;;;;;6.10;3.10;;;;;;;24.57;33.63;99858.40;112774;1258;21895;-75
2024/04/09 07:23:01;;;;;;;7.50;2.90;;;;;;;24.73;32.66;99855.33;112784;1258;21838;-73
2024/04/09 07:25:33;;;;;;;;;;;;;;;24.82;32.90;99852.82;112795;1258;21878;-73
2024/04/09 07:28:01;;;;;;;7.00;3.20;;;;;;;24.83;32.83;99851.23;112785;1258;21920;-76
2024/04/09 07:30:30;;;;;;;8.90;3.40;;;;;;;25.00;32.25;99855.58;112788;1258;22307;-82
2024/04/09 07:33:04;;;;;;;7.40;2.90;;;;;;;25.12;32.19;99850.87;112648;1258;21853;-83
2024/04/09 07:35:37;;;;;;;9.30;3.20;;;;;;;25.25;31.92;99857.21;112743;1258;21925;-82
2024/04/09 07:38:06;;;;;;;8.40;3.10;;;;;;;25.33;31.47;99856.52;112638;1258;22180;-83
2024/04/09 07:40:34;;;;;;;8.20;3.00;;;;;;;25.47;31.22;99859.60;112778;1258;21891;-82
2024/04/09 07:43:03;;;;;;;6.50;2.40;;;;;;;25.52;30.72;99858.15;112809;1258;21884;-84
2024/04/09 07:45:32;;;;;;;9.30;2.60;;;;;;;25.59;30.68;99858.02;112820;1258;22282;-83
2024/04/09 07:48:02;;;;;;;9.20;3.30;;;;;;;25.79;30.69;99855.98;112841;1258;22212;-83
2024/04/09 07:50:31;;;;;;;6.50;2.40;;;;;;;26.05;30.42;99852.54;112619;1257;21774;-80
2024/04/09 07:53:00;;;;;;;6.20;2.60;;;;;;;26.31;29.80;99851.73;112541;1257;21846;-81
2024/04/09 07:55:29;;;;;;;4.60;2.70;;;;;;;26.45;29.76;99856.02;112523;1258;21890;-81
2024/04/09 07:57:58;;;;;;;7.40;2.50;;;;;;;26.69;29.29;99856.72;112387;1250;21877;-79
2024/04/09 08:00:27;;;;;;;5.70;2.80;;;;;;;27.02;28.78;99856.94;112563;1258;21869;-81
2024/04/09 08:02:56;;;;;;;5.60;2.80;;;;;;;27.30;28.05;99852.60;112787;1258;21872;-75
2024/04/09 08:05:27;;;;;;;9.90;3.30;;;;;;;27.62;27.52;99848.36;112777;1257;21892;-83
2024/04/09 08:07:56;;;;;;;7.90;2.60;;;;;;;27.97;27.54;99848.76;112782;1258;22554;-82
2024/04/09 08:10:25;;;;;;;5.10;2.90;;;;;;;28.42;27.37;99849.31;112809;1257;21878;-81
2024/04/09 08:12:54;;;;;;;4.90;2.70;;;;;;;28.71;26.40;99849.42;112840;1257;21876;-81
2024/04/09 08:15:24;;;;;;;5.00;2.40;;;;;;;28.85;26.46;99845.70;112781;1257;22354;-82
2024/04/09 08:17:54;;;;;;;5.10;2.40;;;;;;;28.94;25.77;99842.03;112828;1258;21868;-82
2024/04/09 08:20:23;;;;;;;4.10;2.20;;;;;;;28.96;25.41;99841.33;112762;1258;21893;-83
2024/04/09 08:22:52;;;;;;;7.70;3.00;;;;;;;28.99;25.66;99841.94;112803;1258;21895;-81
2024/04/09 08:25:21;;;;;;;6.70;2.10;;;;;;;29.07;25.49;99840.52;112634;1258;22452;-81
2024/04/09 08:27:55;;;;;;;4.40;2.40;;;;;;;29.09;25.37;99841.10;112775;1258;21877;-81
2024/04/09 08:30:36;;;;;;;6.80;2.50;;;;;;;29.06;25.45;99843.72;112559;1258;22351;-82
2024/04/09 08:33:17;;;;;;;5.50;2.10;;;;;;;28.97;25.07;99839.66;111860;1263;22349;-83
2024/04/09 08:35:52;;;;;;;9.10;2.40;;;;;;;28.73;25.33;99839.51;112224;1263;21820;-81
2024/04/09 08:38:26;;;;;;;8.60;3.20;;;;;;;28.53;25.28;99836.63;111904;1263;21959;-82
2024/04/09 08:41:16;;;;;;;9.30;2.80;;;;;;;28.48;25.34;99830.87;111933;1264;21865;-83
2024/04/09 08:43:49;;;;;;;7.10;2.50;;;;;;;28.48;25.51;99828.86;111654;1264;21855;-81
2024/04/09 08:46:21;;;;;;;4.80;2.40;;;;;;;28.46;25.34;99829.73;112100;1263;22202;-82
2024/04/09 08:48:51;;;;;;;6.10;2.40;;;;;;;28.37;25.34;99828.22;111887;1264;21834;-80
2024/04/09 08:51:25;;;;;;;7.30;2.50;;;;;;;28.23;25.60;99823.69;112474;1258;21882;-81
2024/04/09 08:53:55;;;;;;;5.40;2.30;;;;;;;28.17;25.52;99823.57;112621;1258;21819;-81
2024/04/09 08:56:37;;;;;;;5.80;2.50;;;;;;;28.11;25.62;99822.09;112601;1258;21855;-82
2024/04/09 08:59:17;;;;;;;8.20;1.70;;;;;;;28.08;25.64;99821.39;112516;1258;21854;-84
2024/04/09 09:01:47;;;;;;;7.50;2.60;;;;;;;28.05;25.63;99816.05;112550;1258;22230;-76
2024/04/09 09:04:18;;;;;;;10.80;2.50;;;;;;;28.17;26.01;99810.59;112738;1258;21899;-76
2024/04/09 09:06:48;;;;;;;6.60;2.60;;;;;;;28.35;25.51;99811.77;112795;1258;22377;-78
2024/04/09 09:09:26;;;;;;;6.40;1.90;;;;;;;28.34;25.47;99811.09;112601;1258;21888;-76
2024/04/09 09:12:04;;;;;;;6.00;2.10;;;;;;;28.39;25.21;99812.09;112742;1258;21855;-77
2024/04/09 09:14:33;;;;;;;5.50;2.50;;;;;;;28.63;25.30;99815.33;112714;1258;21877;-75
2024/04/09 09:17:03;;;;;;;3.90;2.10;;;;;;;29.01;25.21;99820.33;112783;1258;21856;-77
2024/04/09 09:19:34;;;;;;;9.50;2.20;;;;;;;29.19;24.55;99817.27;112790;1258;22405;-74
2024/04/09 09:22:10;;;;;;;7.70;3.20;;;;;;;29.44;24.70;99812.57;112764;1258;21862;-75
2024/04/09 09:24:39;;;;;;;9.00;2.20;;;;;;;29.90;24.47;99807.13;112723;1258;21913;-75
2024/04/09 09:27:08;;;;;;;11.20;2.30;;;;;;;30.30;23.61;99806.31;112791;1258;21871;-75
2024/04/09 09:29:37;;;;;;;10.50;2.60;;;;;;;30.35;23.06;99806.54;112791;1255;22057;-75
2024/04/09 09:32:11;;;;;;;6.60;2.20;;;;;;;30.19;23.09;99803.95;112778;1258;21806;-75
2024/04/09 09:34:43;;;;;;;9.40;2.90;;;;;;;30.03;23.19;99797.60;112751;1258;22329;-76
2024/04/09 09:37:17;;;;;;;7.00;1.80;;;;;;;30.30;23.19;99799.94;112513;1258;22262;-75
2024/04/09 09:39:46;;;;;;;10.60;2.10;;;;;;;30.50;22.81;99801.02;112463;1257;22214;-75
2024/04/09 09:42:16;;;;;;;4.70;2.10;;;;;;;30.49;22.66;99796.70;112527;1257;21861;-76
2024/04/09 09:44:45;;;;;;;4.30;2.40;;;;;;;30.30;22.63;99796.66;112611;1258;21911;-75
2024/04/09 09:47:16;;;;;;;13.90;2.70;;;;;;;30.24;22.88;99794.39;112804;1258;21867;-81
2024/04/09 09:49:51;;;;;;;8.10;2.30;;;;;;;30.36;22.73;99788.58;112729;1258;21922;-78
2024/04/09 09:52:45;;;;;;;9.50;2.10;;;;;;;30.49;22.83;99789.84;112580;1255;21878;-79
2024/04/09 09:55:14;;;;;;;8.40;2.20;;;;;;;30.66;23.04;99782.73;112622;1258;21898;-77
2024/04/09 09:57:45;;;;;;;3.10;1.90;;;;;;;30.80;22.61;99780.61;112051;1262;21845;-77
2024/04/09 10:00:15;;;;;;;6.60;2.20;;;;;;;30.77;22.60;99776.44;112392;1262;21836;-78
2024/04/09 10:02:47;;;;;;;5.00;2.30;;;;;;;30.70;22.56;99779.51;112107;1262;21878;-77
2024/04/09 10:05:19;;;;;;;4.00;1.70;;;;;;;30.50;22.56;99777.76;112391;1262;21895;-76
2024/04/09 10:07:51;;;;;;;7.20;2.20;;;;;;;30.47;22.52;99774.99;112422;1262;22330;-77
2024/04/09 10:10:29;;;;;;;10.30;2.50;;;;;;;30.46;22.49;99770.71;112412;1262;21890;-77
2024/04/09 10:13:08;;;;;;;7.00;2.30;;;;;;;30.35;22.69;99772.10;112403;1262;22351;-75
2024/04/09 10:15:47;;;;;;;6.70;2.00;;;;;;;30.30;22.59;99772.79;112462;1258;21908;-76
2024/04/09 10:18:31;;;;;;;6.10;2.30;;;;;;;30.18;22.67;99777.86;112514;1258;21729;-77
2024/04/09 10:21:04;;;;;;;8.00;2.10;;;;;;;30.00;22.72;99772.66;112562;1251;21873;-76
2024/04/09 10:23:38;;;;;;;12.50;2.90;;;;;;;29.90;22.62;99774.26;112711;1258;22216;-77
2024/04/09 10:26:10;;;;;;;9.40;2.00;;;;;;;29.84;22.58;99768.81;112564;1258;21861;-77
2024/04/09 10:28:39;;;;;;;8.70;2.50;;;;;;;29.74;22.54;99767.95;112520;1258;21864;-77
2024/04/09 10:31:09;;;;;;;10.40;3.90;;;;;;;29.64;22.74;99768.48;112532;1258;21855;-75
2024/04/09 10:33:40;;;;;;;7.70;2.70;;;;;;;29.64;22.85;99765.23;112729;1258;22444;-76
2024/04/09 10:36:11;;;;;;;24.80;3.50;;;;;;;29.66;22.74;99766.45;112548;1258;21869;-78
2024/04/09 10:38:41;;;;;;;4.10;2.40;;;;;;;29.69;22.58;99767.48;112541;1257;21914;-77
2024/04/09 10:41:14;;;;;;;6.10;2.40;;;;;;;29.79;22.55;99763.62;112695;1258;21892;-77
2024/04/09 10:43:46;;;;;;;6.70;2.40;;;;;;;29.88;22.61;99763.10;112045;1262;21935;-77
2024/04/09 10:46:18;;;;;;;3.90;2.30;;;;;;;29.90;22.36;99767.60;112395;1262;21919;-76
2024/04/09 10:48:48;;;;;;;4.00;2.40;;;;;;;29.73;22.03;99768.80;112090;1261;21960;-77
2024/04/09 10:51:21;;;;;;;8.70;2.50;;;;;;;29.60;22.28;99766.24;112243;1262;21929;-78
2024/04/09 10:54:04;;;;;;;4.70;2.10;;;;;;;29.42;22.44;99761.75;112439;1262;22089;-75
2024/04/09 10:56:35;;;;;;;13.00;3.80;;;;;;;29.25;22.41;99760.55;112231;1262;21815;-75
2024/04/09 10:59:15;;;;;;;8.90;2.00;;;;;;;29.33;22.46;99759.86;112482;1262;21872;-77
2024/04/09 11:01:46;;;;;;;9.70;2.40;;;;;;;29.30;22.47;99755.08;112598;1258;21875;-75
2024/04/09 11:04:18;;;;;;;8.60;2.40;;;;;;;29.33;22.67;99751.77;112784;1257;22314;-75
2024/04/09 11:06:49;;;;;;;5.80;3.00;;;;;;;29.32;22.65;99749.90;112757;1257;21912;-75
2024/04/09 11:09:21;;;;;;;;;;;;;;;29.18;22.58;99744.42;112787;1258;21874;-76
2024/04/09 11:11:55;;;;;;;5.60;2.80;;;;;;;28.69;22.99;99747.09;112807;1258;22335;-73
2024/04/09 11:14:24;;;;;;;8.60;2.80;;;;;;;28.44;23.54;99747.09;112792;1258;21902;-70
2024/04/09 11:16:52;;;;;;;7.20;2.00;;;;;;;28.40;23.33;99740.17;112684;1257;22020;-75
2024/04/09 11:19:27;;;;;;;9.90;1.90;;;;;;;28.29;23.21;99739.38;112808;1257;21922;-75
2024/04/09 11:21:57;;;;;;;5.80;1.80;;;;;;;28.24;23.60;99731.67;112594;1258;21867;-74
2024/04/09 11:24:26;;;;;;;9.70;2.40;;;;;;;28.26;23.64;99733.08;112788;1258;21895;-75
2024/04/09 11:26:55;;;;;;;7.70;2.30;;;;;;;28.22;23.76;99731.13;112742;1258;21885;-75
2024/04/09 11:29:24;;;;;;;4.70;2.10;;;;;;;28.13;23.56;99733.42;112742;1258;21868;-76
2024/04/09 11:31:54;;;;;;;11.90;4.30;;;;;;;28.02;23.24;99723.01;112732;1258;22235;-75
2024/04/09 11:34:28;;;;;;;7.40;2.50;;;;;;;27.83;23.18;99718.55;112789;1254;21867;-74
2024/04/09 11:36:59;;;;;;;5.20;1.80;;;;;;;27.72;23.45;99711.63;112799;1258;21849;-75
2024/04/09 11:39:28;;;;;;;;;;;;;;;27.65;23.61;99710.48;112735;1258;22467;-74